AirNav   Air Wisconsin pilot careers
 
 323 users online  

KNFE Fentress Naval Auxiliary Field
Fentress, Virginia, USA

GOING TO FENTRESS?


FAA INFORMATION EFFECTIVE 26 APRIL 2018

Location

FAA Identifier: NFE
Lat/Long: 36-41-31.3310N / 076-08-04.4305W
36-41.522183N / 076-08.073842W
36.6920364 / -76.1345640
(estimated)
Elevation: 16 ft. / 5 m (estimated)
Variation: 09W (1985)
Time zone: UTC -4 (UTC -5 during Standard Time)
Zip code: 23322

Airport Operations

Airport use: Private use. Permission required prior to landing
Activation date: 08/1943
Control tower: no
ARTCC: WASHINGTON CENTER
FSS: LEESBURG FLIGHT SERVICE STATION
Attendance: UNATNDD
Segmented circle: no
Lights: RY LGTS OPERATED BY CRASH CREW DURING SCHEDULED OPNS.

Airport Communications

OCEANA APPROACH: 123.9
OCEANA DEPARTURE: 123.9
WX AWOS-3 at CPK (9 nm W): 123.675 (757-421-0252)
WX ASOS at NTU (9 nm NE): PHONE DSN 433-3619 or 757-433-3619
WX ASOS at ORF (13 nm N): PHONE 757-460-9348
WX AWOS-3PT at PVG (16 nm W): 118.375 (757-465-2175)
WX AWOS-3 at ONX (18 nm S): 119.775 (252-453-8939)

Nearby radio navigation aids

VOR radial/distance  VOR name  Freq  Var
ORFr172/12.4NORFOLK VORTAC116.9007W
ECGr011/26.1ELIZABETH CITY VOR/DME112.5007W
CCVr199/39.9CAPE CHARLES VORTAC112.2010W

 
NDB name  Hdg/Dist  Freq  Var  ID
INGLE157/10.532909WOR --- .-.
WOODVILLE027/26.925410WLLW .-.. .-.. .--

Airport Services

Runway Information

Runway 5/23

Dimensions: 8004 x 175 ft. / 2440 x 53 m
Surface: asphalt
Weight bearing capacity: 
PCN 40 /R/C/W/T
Runway edge lights: low intensity
RUNWAY 5  RUNWAY 23
Latitude: 36-41.014033N36-42.030333N
Longitude: 076-08.595917W076-07.551767W
Elevation: 14.5 ft.14.2 ft.
Traffic pattern: leftleft
Runway heading: 049 magnetic, 040 true228 magnetic, 219 true
Touchdown point: yes, no lightsyes, no lights

Airport Ownership and Management from official FAA records

Ownership: U.S. Navy
Owner: US NAVY
OCEANOGRAPHIC OFC - CODE 3142
WASHINGTON, DC 20373

Instrument Procedures

There are no published instrument procedures at KNFE.

Some nearby airports with instrument procedures:

KCPK - Chesapeake Regional Airport (9 nm W)
KNTU - Oceana Naval Air Station (Apollo Soucek Field) (9 nm NE)
KORF - Norfolk International Airport (13 nm N)
KPVG - Hampton Roads Executive Airport (16 nm W)
KNGU - Norfolk Naval Station (Chambers Field) (16 nm NW)
KONX - Currituck County Regional Airport (18 nm S)
 
Loc | Ops | Rwys | IFR | FBO | Links
Com | Nav | Svcs | Stats | Notes

AirNav Hotels Sweepstakes
 
Area around KNFE (Fentress Naval Auxiliary Field)
 
Road maps at: MapQuest Bing Google
 
Aerial photo
WARNING: Photo may not be current or correct
Aerial photo of KNFE (Fentress Naval Auxiliary Field)
Do you have a better or more recent aerial photo of Fentress Naval Auxiliary Field that you would like to share? If so, please send us your photo.

 
Sectional chart

 
Airport distance calculator
Flying to Fentress Naval Auxiliary Field? Find the distance to fly.

From to KNFE

Sunrise and sunset
Times for 27-Apr-2018
 Local
(UTC-4)
 Zulu
(UTC)
Morning civil twilight05:4909:49
Sunrise06:1610:16
Sunset19:4823:48
Evening civil twilight20:1600:16

Current date and time
Zulu (UTC)  27-Apr-2018 08:09:54
Local (UTC-4)  27-Apr-2018 04:09:54
 
METAR
KNFE 270756Z AUTO 00000KT 7SM FEW055 15/13 A2977 RMK AO2 SLP083 T01500133
KCPK 
9nm W 
270755Z AUTO 00000KT 5SM HZ SCT023 SCT033 BKN045 A2978 RMK AO2 LTG DSNT N
KNTU 
9nm NE 
270756Z 15005KT 10SM BKN055 BKN230 15/15 A2976 RMK AO2 SLP081 T01500150 $
KORF 
13nm N 
270751Z 18004KT 10SM FEW045 16/14 A2976 RMK AO2 SLP078 T01560139
KNGU 
15nm NW 
270759Z 17004KT 10SM BKN038 BKN049 OVC200 16/14 A2978 RMK AO2 SLP083 T01560139
KPVG 
16nm W 
270756Z AUTO VRB04KT 10SM BKN033 BKN050 14/13 A2978 RMK AO2 SLP086 T01440133 TSNO
TAF
KNTU 
9nm NE 
2623/2723 11006KT 9999 SCT025 BKN060 OVC250 QNH2982INS FM270400 14008KT 9999 SCT020 BKN040 OVC080 QNH2980INS FM270800 18006KT 4800 RA BR BKN020 OVC040 651109 550309 551206 QNH2975INS TEMPO 2708/2714 VRB25G35KT 1600 -TSRA BR BKN005 OVC015CB FM271400 16008KT 9999 BKN030 BKN250 651109 550309 551206 QNH2958INS TEMPO 2717/2723 VRB25G35KT 3200 -TSRA BR BKN015CB BKN040 T13/2710Z T22/2719Z FN20051
KORF 
13nm N 
270531Z 2706/2806 13007KT P6SM VCSH BKN040 OVC080 FM270900 14007KT P6SM VCSH OVC040 FM271400 17007KT P6SM VCSH OVC050 FM271700 21009KT P6SM BKN050 FM272300 26006KT P6SM BKN050 FM280300 00000KT P6SM BKN080
KNGU 
15nm NW 
2623/2723 13010KT 9999 SCT050 BKN300 QNH2975INS FM270700 19008KT 9999 VCSH FEW018 BKN040 OVC100 QNH2969INS TEMPO 2709/2712 8000 -SHRA BKN009 OVC028 FM271300 21008KT 9999 VCSH SCT015 BKN035 BKN100 QNH2965INS FM271800 23008KT 9999 SCT030 SCT100 BKN280 QNH2960INS T15/2704Z T25/2719Z FN20060
NOTAMs
Click for the latest NOTAMs
NOTAMs are issued by the DoD/FAA and will open in a separate window not controlled by AirNav.

 

 
 

Would you like to see your business listed on this page?

 If your business provides an interesting product or service to pilots, flight crews, aircraft, or users of the Fentress Naval Auxiliary Field, you should consider listing it here.  To start the listing process, click on the button below
 
Add a business
 

Other Pages about Fentress Naval Auxiliary Field

Update a link
 
Copyright © AirNav, LLC. All rights reserved. Privacy Policy  Contact